createdAt,value
2023-03-02T00:03:32.596Z,32.00
2023-03-02T00:08:35.803Z,32.20
2023-03-02T00:13:40.202Z,32.00
2023-03-02T00:18:43.058Z,31.00
2023-03-02T00:23:45.977Z,31.00
2023-03-02T00:28:50.124Z,31.20
2023-03-02T00:33:54.959Z,31.40
2023-03-02T00:38:58.215Z,30.40
2023-03-02T00:44:02.424Z,30.00
2023-03-02T00:49:05.208Z,29.20
2023-03-02T00:54:07.987Z,29.20
2023-03-02T00:59:26.183Z,30.00
2023-03-02T01:04:38.348Z,30.00
2023-03-02T01:09:44.680Z,29.80
2023-03-02T01:14:50.788Z,30.60
2023-03-02T01:19:55.258Z,28.40
2023-03-02T01:24:58.758Z,28.80
2023-03-02T01:30:03.012Z,29.80
2023-03-02T01:35:07.808Z,28.80
2023-03-02T01:40:14.089Z,29.00
2023-03-02T01:45:47.079Z,28.40
2023-03-02T01:50:54.824Z,27.80
2023-03-02T01:56:00.043Z,27.40
2023-03-02T02:01:05.782Z,27.40
2023-03-02T02:06:18.141Z,29.00
2023-03-02T02:11:21.119Z,26.40
2023-03-02T02:16:29.883Z,27.00
2023-03-02T02:21:32.887Z,27.20
2023-03-02T02:26:42.397Z,27.00
2023-03-02T02:31:49.001Z,26.60
2023-03-02T02:36:56.981Z,25.00
2023-03-02T02:42:05.180Z,27.00
2023-03-02T02:47:17.420Z,24.80
2023-03-02T02:52:24.507Z,26.00
2023-03-02T02:57:31.495Z,25.00
2023-03-02T03:02:40.854Z,25.60
2023-03-02T03:07:44.121Z,25.80
2023-03-02T03:12:48.816Z,26.20
2023-03-02T03:17:55.970Z,25.60
2023-03-02T03:23:00.787Z,25.60
2023-03-02T03:28:07.256Z,25.00
2023-03-02T03:33:11.961Z,24.20
2023-03-02T03:38:16.029Z,24.00
2023-03-02T03:43:23.844Z,23.00
2023-03-02T03:48:29.608Z,22.80
2023-03-02T03:53:32.486Z,23.00
2023-03-02T03:58:37.532Z,23.00
2023-03-02T04:03:40.947Z,24.40
2023-03-02T04:08:43.750Z,23.80
2023-03-02T04:13:48.830Z,22.80
2023-03-02T04:18:51.947Z,21.40
2023-03-02T04:23:55.447Z,23.00
2023-03-02T04:29:00.605Z,22.00
2023-03-02T04:34:05.030Z,23.00
2023-03-02T04:39:10.185Z,22.80
2023-03-02T04:44:15.342Z,22.60
2023-03-02T04:49:20.178Z,21.00
2023-03-02T04:54:26.878Z,21.60
2023-03-02T04:59:31.105Z,21.00
2023-03-02T05:04:34.494Z,21.80
2023-03-02T05:09:37.358Z,21.00
2023-03-02T05:14:41.470Z,20.80
2023-03-02T05:19:44.401Z,21.00
2023-03-02T05:24:47.158Z,19.40
2023-03-02T05:29:51.475Z,21.00
2023-03-02T05:34:54.268Z,20.60
2023-03-02T05:39:57.045Z,21.00
2023-03-02T05:45:01.303Z,19.00
2023-03-02T05:50:04.487Z,19.00
2023-03-02T05:55:08.429Z,20.00
2023-03-02T06:00:14.958Z,19.60
2023-03-02T06:05:19.602Z,19.00
2023-03-02T06:10:23.001Z,19.60
2023-03-02T06:15:29.714Z,20.00
2023-03-02T06:20:32.540Z,19.20
2023-03-02T06:25:36.943Z,19.00
2023-03-02T06:30:41.093Z,19.00
2023-03-02T06:35:44.003Z,19.20
2023-03-02T06:40:47.686Z,18.40
2023-03-02T06:45:51.926Z,18.00
2023-03-02T06:50:54.975Z,19.00
2023-03-02T06:55:57.762Z,17.00
2023-03-02T07:01:01.989Z,17.40
2023-03-02T07:06:05.268Z,17.00
2023-03-02T07:11:11.536Z,18.40
2023-03-02T07:16:16.800Z,18.80
2023-03-02T07:21:19.788Z,15.80
2023-03-02T07:26:22.858Z,16.60
2023-03-02T07:31:27.042Z,16.20
2023-03-02T07:36:29.992Z,14.80
2023-03-02T07:41:33.267Z,14.20
2023-03-02T07:46:39.145Z,18.40
2023-03-02T07:51:42.097Z,17.40
2023-03-02T07:56:46.094Z,14.20
2023-03-02T08:01:50.613Z,24.00
2023-03-02T08:06:53.787Z,24.80
2023-03-02T08:11:56.664Z,24.60
2023-03-02T08:17:00.806Z,23.80
2023-03-02T08:22:03.799Z,22.20
2023-03-02T08:27:06.672Z,20.00
2023-03-02T08:32:11.118Z,21.20
2023-03-02T08:37:13.973Z,18.20
2023-03-02T08:42:17.840Z,17.40
2023-03-02T08:47:22.049Z,19.60
2023-03-02T08:52:24.873Z,18.40
2023-03-02T08:57:27.677Z,17.40
2023-03-02T09:02:31.824Z,17.60
2023-03-02T09:07:34.650Z,16.40
2023-03-02T09:12:37.619Z,16.60
2023-03-02T09:17:41.804Z,15.20
2023-03-02T09:22:48.608Z,16.40
2023-03-02T09:27:51.383Z,17.40
2023-03-02T09:32:55.830Z,15.60
2023-03-02T09:37:58.687Z,17.40
2023-03-02T09:43:30.309Z,15.40
2023-03-02T09:48:41.702Z,14.80
2023-03-02T09:53:52.378Z,15.80
2023-03-02T09:59:00.057Z,14.80
2023-03-02T10:04:16.537Z,15.40
2023-03-02T10:09:19.601Z,16.40
2023-03-02T10:14:28.069Z,16.80
2023-03-02T10:19:42.153Z,16.40
2023-03-02T10:24:51.269Z,17.00
2023-03-02T10:30:00.900Z,15.00
2023-03-02T10:35:17.211Z,15.00
2023-03-02T10:40:42.946Z,13.00
2023-03-02T10:45:46.386Z,13.00
2023-03-02T10:50:55.078Z,15.00
2023-03-02T10:55:57.884Z,14.50
2023-03-02T11:01:02.714Z,13.00
2023-03-02T11:06:22.453Z,12.00
2023-03-02T11:11:26.398Z,13.00
2023-03-02T11:16:33.294Z,13.00
2023-03-02T11:21:42.226Z,13.75
2023-03-02T11:26:48.371Z,14.00
2023-03-02T11:31:54.624Z,12.75
2023-03-02T11:37:05.233Z,13.00
2023-03-02T11:42:19.902Z,14.00
2023-03-02T11:47:24.230Z,14.00
2023-03-02T11:52:33.073Z,18.40
2023-03-02T11:57:40.099Z,20.60
2023-03-02T12:02:42.867Z,21.60
2023-03-02T12:07:58.692Z,22.60
2023-03-02T12:13:14.568Z,22.80
2023-03-02T12:18:47.433Z,21.00
2023-03-02T12:24:01.578Z,20.00
2023-03-02T12:29:08.507Z,19.80
2023-03-02T12:34:32.320Z,18.00
2023-03-02T12:40:01.489Z,18.20
2023-03-02T12:45:15.414Z,17.60
2023-03-02T12:50:21.943Z,18.20
2023-03-02T12:55:26.261Z,17.60
2023-03-02T13:00:31.142Z,14.20
2023-03-02T13:05:36.964Z,16.00
2023-03-02T13:10:43.065Z,15.20
2023-03-02T13:15:50.901Z,57.00
2023-03-02T13:20:54.657Z,64.60
2023-03-02T13:26:00.468Z,77.00
2023-03-02T13:31:05.623Z,95.00
2023-03-02T13:36:09.135Z,97.67
2023-03-02T13:41:23.041Z,103.00
2023-03-02T13:46:28.816Z,105.33
2023-03-02T13:51:34.680Z,154.75
2023-03-02T13:56:41.449Z,132.50
2023-03-02T14:01:44.758Z,116.33
2023-03-02T14:06:48.081Z,123.33
2023-03-02T14:11:55.941Z,102.00
2023-03-02T14:16:58.745Z,29.60
2023-03-02T14:22:01.530Z,22.00
2023-03-02T14:27:05.719Z,18.00
2023-03-02T14:32:11.711Z,17.40
2023-03-02T14:37:18.007Z,16.00
2023-03-02T14:42:22.971Z,15.00
2023-03-02T14:47:25.778Z,14.50
2023-03-02T14:52:34.039Z,12.50
2023-03-02T14:57:39.203Z,14.00
2023-03-02T15:02:42.228Z,15.80
2023-03-02T15:07:45.056Z,12.75
2023-03-02T15:12:49.316Z,16.80
2023-03-02T15:17:52.073Z,15.00
2023-03-02T15:22:54.851Z,15.20
2023-03-02T15:27:59.225Z,13.25
2023-03-02T15:33:01.984Z,14.50
2023-03-02T15:38:04.865Z,14.00
2023-03-02T15:43:09.261Z,12.50
2023-03-02T15:48:13.571Z,14.00
2023-03-02T15:53:16.528Z,12.25
2023-03-02T15:58:21.800Z,12.50
2023-03-02T16:03:25.033Z,11.50
2023-03-02T16:08:28.067Z,10.00
2023-03-02T16:13:32.726Z,9.00
2023-03-02T16:18:35.662Z,7.75
2023-03-02T16:23:38.571Z,8.50
2023-03-02T16:28:43.189Z,62.20
2023-03-02T16:33:46.890Z,97.60
2023-03-02T16:38:49.745Z,149.00
2023-03-02T16:43:55.717Z,152.75
2023-03-02T16:48:59.606Z,165.50
2023-03-02T16:54:02.449Z,171.25
2023-03-02T16:59:06.584Z,165.25
2023-03-02T17:04:09.636Z,156.00
2023-03-02T17:09:13.604Z,150.00
2023-03-02T17:14:17.839Z,127.67
2023-03-02T17:19:20.840Z,111.25
2023-03-02T17:24:23.699Z,105.00
2023-03-02T17:29:27.932Z,99.67
2023-03-02T17:34:31.315Z,94.00
2023-03-02T17:39:34.077Z,89.00
2023-03-02T17:44:40.645Z,85.40
2023-03-02T17:49:45.122Z,82.40
2023-03-02T17:54:47.891Z,82.20
2023-03-02T17:59:52.074Z,85.20
2023-03-02T18:04:54.850Z,84.00
2023-03-02T18:09:57.910Z,82.40
2023-03-02T18:15:02.476Z,78.00
2023-03-02T18:20:05.995Z,79.40
2023-03-02T18:25:09.595Z,75.60
2023-03-02T18:30:14.689Z,76.60
2023-03-02T18:35:19.369Z,74.40
2023-03-02T18:40:22.370Z,75.40
2023-03-02T18:45:28.840Z,73.80
2023-03-02T18:50:31.764Z,72.80
2023-03-02T18:55:34.516Z,67.20
2023-03-02T19:00:38.722Z,68.20
2023-03-02T19:05:42.401Z,66.80
2023-03-02T19:10:45.244Z,64.40
2023-03-02T19:15:49.605Z,64.80
2023-03-02T19:20:54.263Z,61.40
2023-03-02T19:25:57.290Z,61.40
2023-03-02T19:31:04.578Z,62.20
2023-03-02T19:36:08.477Z,64.00
2023-03-02T19:41:13.919Z,59.40
2023-03-02T19:46:19.113Z,59.00
2023-03-02T19:51:22.044Z,62.00
2023-03-02T19:56:29.995Z,58.60
2023-03-02T20:01:34.343Z,59.40
2023-03-02T20:06:37.335Z,59.80
2023-03-02T20:11:40.460Z,59.00
2023-03-02T20:16:45.050Z,55.40
2023-03-02T20:21:48.250Z,54.80
2023-03-02T20:26:51.665Z,52.40
2023-03-02T20:31:58.241Z,52.80
2023-03-02T20:37:03.216Z,54.00
2023-03-02T20:42:08.029Z,50.40
2023-03-02T20:47:15.077Z,50.20
2023-03-02T20:52:18.855Z,50.80
2023-03-02T20:57:23.385Z,50.20
2023-03-02T21:02:28.164Z,48.80
2023-03-02T21:07:31.537Z,48.80
2023-03-02T21:12:34.932Z,47.00
2023-03-02T21:17:39.398Z,46.80
2023-03-02T21:22:42.481Z,45.80
2023-03-02T21:27:46.402Z,44.60
2023-03-02T21:32:51.265Z,38.00
2023-03-02T21:37:57.862Z,41.60
2023-03-02T21:43:01.771Z,40.60
2023-03-02T21:48:07.266Z,39.00
2023-03-02T21:53:10.278Z,39.20
2023-03-02T21:58:13.310Z,38.00
2023-03-02T22:03:17.840Z,37.40
2023-03-02T22:08:22.170Z,36.60
2023-03-02T22:13:27.181Z,36.40
2023-03-02T22:18:32.454Z,37.80
2023-03-02T22:23:35.199Z,36.80
2023-03-02T22:28:40.909Z,35.20
2023-03-02T22:33:45.084Z,35.00
2023-03-02T22:38:47.917Z,36.60
2023-03-02T22:43:53.025Z,35.40
2023-03-02T22:48:57.575Z,33.20
2023-03-02T22:54:01.697Z,33.20
2023-03-02T22:59:10.152Z,34.20
2023-03-02T23:04:19.486Z,32.20
2023-03-02T23:09:24.731Z,33.00
2023-03-02T23:14:30.105Z,32.00
2023-03-02T23:19:34.264Z,33.00
2023-03-02T23:24:37.427Z,32.00
2023-03-02T23:29:40.842Z,32.00
2023-03-02T23:34:45.164Z,32.00
2023-03-02T23:39:48.308Z,33.00
2023-03-02T23:44:51.157Z,33.00
2023-03-02T23:49:55.400Z,33.00
2023-03-02T23:54:59.068Z,31.80
